Airfield :
LOGIN :

Register | Disclaimer

   EN    FR    IT 

 










Legend :    VFR   Marginal VFR   IFR   Intensive IFR   Very Intensive IFR
Visi :
Ceiling :
>= 8 km
>= 3000ft
5 to 8 km
1000 to 3000 ft
1500m to 5 km
500 to 1000 ft
800 to 1500m
200 to 500 ft
< 800m
< 200 ft
Symbols :   Thunderstorms  Fog  Heavy snow  Heavy precipitations  Wind > 20 kt
SIGMETs :     Misc.  Thunderstorms  Icing  Turbulence  Mountain Waves  Volcanic Ashes







- Airport Elevation : 1273 ft
- IATA code : LJU


LJLJ - Ljubljana

CURRENT METAR :
  • 170730Z 21001KT CAVOK 09/08 Q1027 NOSIG

EXPIRED METARs :
  • 170700Z VRB01KT 9999 FEW002 07/07 Q1027 NOSIG
  • 170630Z 00000KT 9999 FEW002 05/05 Q1027 NOSIG
  • 170600Z VRB01KT 9999 MIFG NSC 03/03 Q1027 NOSIG
  • 170530Z VRB02KT 9999 MIFG NSC 03/03 Q1027 NOSIG
  • 170500Z 28003KT 9999 MIFG NSC 03/03 Q1026 NOSIG

TAF TAF LJLJ
Valid from the 17 at 06:00 until the 18 at 06:00 UTC


170500Z 1706/1806 29003KT CAVOK
BECMG 1711/1714 12004KT
BECMG 1716/1718 29003KT
PROB30
TEMPO 1802/1806 0350 FG VV001
No reported NOTAMs for that airfield.



MET'MAP, your aeronautical weather chart ! - Copyright ORBIFLY December 2007 - Disclaimer

ORBIFLY MET'MAP TEAM :

Programming & Development : Alexandra Zaïnal
Concept & Development : Baudouin d'Aumeries
Co-Development & Prog : Marc-Olivier Méhu
Technical & hardware support : Manuel Goepfert

Contact : metmap@orbifly.com




SOURCES & CREDITS :

   NOAA